createdAt,value
2022-09-06T00:00:16.355Z,4.97
2022-09-06T00:02:44.209Z,5.55
2022-09-06T00:05:13.890Z,4.78
2022-09-06T00:07:42.482Z,5.13
2022-09-06T00:10:14.542Z,4.05
2022-09-06T00:12:41.607Z,4.20
2022-09-06T00:15:08.986Z,4.50
2022-09-06T00:17:37.422Z,3.85
2022-09-06T00:20:05.347Z,4.28
2022-09-06T00:22:32.742Z,4.30
2022-09-06T00:25:00.958Z,4.53
2022-09-06T00:27:28.655Z,4.53
2022-09-06T00:29:55.685Z,4.05
2022-09-06T00:32:23.729Z,4.40
2022-09-06T00:34:50.971Z,4.57
2022-09-06T00:37:17.894Z,4.43
2022-09-06T00:39:46.629Z,4.03
2022-09-06T00:42:14.457Z,4.50
2022-09-06T00:44:41.646Z,4.70
2022-09-06T00:47:09.593Z,4.32
2022-09-06T00:49:41.456Z,4.38
2022-09-06T00:52:12.195Z,4.40
2022-09-06T00:54:39.987Z,4.45
2022-09-06T00:57:08.236Z,4.90
2022-09-06T00:59:38.674Z,4.55
2022-09-06T01:02:07.677Z,4.53
2022-09-06T02:19:43.655Z,4.60
2022-09-06T02:22:14.394Z,5.18
2022-09-06T02:24:44.849Z,4.78
2022-09-06T02:27:13.653Z,4.82
2022-09-06T02:29:41.913Z,4.60
2022-09-06T02:32:19.375Z,5.20
2022-09-06T02:34:46.960Z,4.88
2022-09-06T02:37:16.884Z,5.00
2022-09-06T02:39:44.700Z,5.10
2022-09-06T02:42:15.795Z,5.03
2022-09-06T02:44:42.825Z,4.90
2022-09-06T02:47:09.973Z,5.72
2022-09-06T02:49:36.943Z,5.32
2022-09-06T02:52:04.220Z,5.15
2022-09-06T02:54:31.497Z,5.00
2022-09-06T02:56:58.654Z,4.80
2022-09-06T02:59:25.674Z,5.03
2022-09-06T03:01:52.543Z,4.50
2022-09-06T03:04:19.444Z,5.30
2022-09-06T03:06:46.249Z,4.90
2022-09-06T03:09:13.322Z,4.78
2022-09-06T03:11:40.161Z,4.80
2022-09-06T03:14:07.393Z,5.13
2022-09-06T03:16:34.949Z,4.65
2022-09-06T03:19:01.795Z,4.93
2022-09-06T03:21:28.710Z,4.90
2022-09-06T03:23:55.530Z,5.07
2022-09-06T03:26:22.343Z,4.65
2022-09-06T03:28:50.400Z,4.63
2022-09-06T03:31:17.616Z,5.20
2022-09-06T03:33:44.536Z,4.65
2022-09-06T03:36:11.688Z,4.60
2022-09-06T03:38:38.679Z,4.75
2022-09-06T03:41:05.600Z,4.90
2022-09-06T03:43:32.979Z,4.82
2022-09-06T03:45:59.961Z,4.30
2022-09-06T03:48:28.973Z,4.88
2022-09-06T03:50:58.186Z,4.75
2022-09-06T03:53:27.112Z,5.10
2022-09-06T03:55:55.639Z,5.03
2022-09-06T03:58:24.060Z,4.63
2022-09-06T04:01:00.432Z,5.05
2022-09-06T04:03:27.384Z,4.75
2022-09-06T04:05:54.191Z,5.28
2022-09-06T04:08:21.160Z,4.88
2022-09-06T04:10:51.480Z,4.82
2022-09-06T04:13:18.511Z,5.00
2022-09-06T04:15:47.863Z,5.35
2022-09-06T04:18:15.690Z,4.65
2022-09-06T04:20:43.128Z,6.03
2022-09-06T04:23:09.948Z,4.90
2022-09-06T04:25:37.124Z,5.13
2022-09-06T04:28:04.026Z,4.78
2022-09-06T04:30:30.979Z,4.95
2022-09-06T04:32:57.845Z,5.60
2022-09-06T04:35:24.688Z,4.80
2022-09-06T04:37:51.467Z,6.18
2022-09-06T04:40:18.295Z,5.00
2022-09-06T04:42:45.052Z,5.18
2022-09-06T04:45:12.203Z,5.45
2022-09-06T04:47:39.023Z,5.10
2022-09-06T04:50:06.684Z,4.93
2022-09-06T04:52:33.751Z,4.65
2022-09-06T04:55:00.680Z,4.88
2022-09-06T04:57:27.590Z,4.60
2022-09-06T04:59:54.768Z,7.15
2022-09-06T05:02:21.568Z,5.15
2022-09-06T05:04:48.452Z,5.00
2022-09-06T05:07:15.372Z,6.28
2022-09-06T05:09:42.209Z,6.00
2022-09-06T05:12:09.279Z,5.40
2022-09-06T05:14:36.124Z,5.28
2022-09-06T05:17:03.001Z,5.47
2022-09-06T05:19:29.807Z,5.25
2022-09-06T05:21:56.636Z,5.50
2022-09-06T05:24:23.510Z,5.53
2022-09-06T05:26:50.314Z,5.30
2022-09-06T05:29:17.134Z,5.57
2022-09-06T05:31:44.065Z,5.70
2022-09-06T05:34:13.516Z,5.15
2022-09-06T05:36:41.797Z,5.70
2022-09-06T05:39:08.612Z,5.97
2022-09-06T05:41:35.516Z,6.18
2022-09-06T05:44:02.685Z,5.55
2022-09-06T05:46:29.721Z,6.40
2022-09-06T05:49:01.271Z,5.55
2022-09-06T05:51:28.273Z,6.20
2022-09-06T05:53:55.116Z,6.32
2022-09-06T05:56:22.687Z,5.75
2022-09-06T05:58:49.539Z,6.30
2022-09-06T06:01:20.475Z,6.18
2022-09-06T06:03:52.732Z,6.10
2022-09-06T06:06:21.824Z,5.97
2022-09-06T06:08:48.880Z,6.13
2022-09-06T06:11:16.633Z,5.65
2022-09-06T06:13:44.403Z,6.15
2022-09-06T06:16:13.712Z,6.22
2022-09-06T06:18:41.249Z,5.82
2022-09-06T06:21:21.214Z,5.72
2022-09-06T06:23:51.827Z,5.90
2022-09-06T06:26:19.284Z,6.65
2022-09-06T06:28:46.638Z,6.03
2022-09-06T06:31:13.735Z,5.85
2022-09-06T06:33:40.978Z,5.97
2022-09-06T06:36:21.821Z,5.80
2022-09-06T06:38:49.966Z,5.95
2022-09-06T06:41:18.896Z,6.00
2022-09-06T06:43:45.961Z,11.85
2022-09-06T06:46:15.467Z,10.48
2022-09-06T06:48:43.909Z,9.25
2022-09-06T06:51:12.796Z,9.20
2022-09-06T06:53:39.871Z,7.18
2022-09-06T06:56:23.990Z,7.07
2022-09-06T06:58:53.809Z,7.20
2022-09-06T07:01:22.504Z,7.68
2022-09-06T07:03:49.996Z,6.10
2022-09-06T07:06:18.427Z,6.05
2022-09-06T07:08:46.317Z,6.70
2022-09-06T07:11:15.171Z,5.85
2022-09-06T07:13:42.412Z,6.10
2022-09-06T07:16:12.844Z,6.22
2022-09-06T07:18:42.359Z,6.00
2022-09-06T07:26:32.142Z,6.43
2022-09-06T07:29:01.477Z,5.78
2022-09-06T07:34:17.834Z,6.40
2022-09-06T07:36:44.743Z,6.20
2022-09-06T07:39:11.587Z,7.00
2022-09-06T07:41:38.394Z,6.75
2022-09-06T07:44:05.078Z,5.78
2022-09-06T07:46:31.957Z,6.22
2022-09-06T07:48:59.064Z,6.00
2022-09-06T07:51:26.188Z,6.32
2022-09-06T07:54:19.360Z,6.13
2022-09-06T07:56:44.526Z,6.05
2022-09-06T07:59:11.347Z,6.10
2022-09-06T08:01:39.301Z,6.15
2022-09-06T08:04:09.044Z,6.60
2022-09-06T08:09:25.468Z,6.00
2022-09-06T08:11:52.923Z,6.28
2022-09-06T08:14:20.514Z,6.00
2022-09-06T08:16:47.382Z,6.25
2022-09-06T08:19:14.265Z,5.90
2022-09-06T08:21:41.284Z,6.45
2022-09-06T08:24:12.817Z,6.18
2022-09-06T08:26:40.751Z,6.05
2022-09-06T08:29:09.052Z,6.00
2022-09-06T08:31:38.756Z,6.30
2022-09-06T08:34:06.311Z,6.13
2022-09-06T08:36:33.985Z,5.88
2022-09-06T08:39:06.153Z,6.25
2022-09-06T08:41:57.319Z,6.15
2022-09-06T08:44:57.226Z,6.47
2022-09-06T08:47:25.029Z,6.07
2022-09-06T08:49:55.766Z,6.57
2022-09-06T08:53:16.300Z,6.10
2022-09-06T08:56:05.146Z,6.23
2022-09-06T08:59:09.153Z,6.82
2022-09-06T09:01:59.191Z,6.18
2022-09-06T09:04:29.071Z,6.40
2022-09-06T09:07:00.663Z,7.07
2022-09-06T09:11:59.850Z,6.75
2022-09-06T09:14:35.501Z,7.15
2022-09-06T09:17:15.914Z,7.03
2022-09-06T09:19:42.924Z,6.88
2022-09-06T09:22:10.807Z,6.43
2022-09-06T09:24:37.626Z,7.28
2022-09-06T09:27:08.814Z,6.82
2022-09-06T09:32:53.921Z,7.97
2022-09-06T09:35:36.927Z,6.82
2022-09-06T09:38:21.377Z,6.75
2022-09-06T10:09:56.793Z,6.53
2022-09-06T10:12:41.014Z,5.93
2022-09-06T10:25:46.395Z,4.88
2022-09-06T10:28:34.271Z,4.75
2022-09-06T10:31:07.855Z,5.18
2022-09-06T10:39:09.776Z,4.95
2022-09-06T10:42:02.707Z,5.50
2022-09-06T10:44:29.394Z,4.35
2022-09-06T10:47:04.189Z,4.55
2022-09-06T10:49:32.397Z,4.68
2022-09-06T10:52:01.571Z,4.97
2022-09-06T10:54:33.739Z,5.07
2022-09-06T11:00:04.303Z,4.50
2022-09-06T11:02:34.687Z,4.70
2022-09-06T11:11:06.448Z,4.60
2022-09-06T11:13:33.502Z,5.25
2022-09-06T11:30:06.131Z,4.78
2022-09-06T11:58:31.962Z,5.22
2022-09-06T12:24:59.998Z,5.15
2022-09-06T12:27:32.111Z,5.25
2022-09-06T13:54:51.274Z,4.68
2022-09-06T13:59:51.519Z,3.05
2022-09-06T14:02:20.789Z,4.70
2022-09-06T14:04:47.887Z,2.90
2022-09-06T14:07:14.850Z,5.30
2022-09-06T14:09:42.166Z,5.15
2022-09-06T14:12:10.487Z,5.90
2022-09-06T14:14:37.614Z,4.00
2022-09-06T14:54:12.651Z,2.95
2022-09-06T23:58:50.361Z,6.35
